Time;durP1;ratioP1;P1;durP2;ratioP2;P2;SDS_P1;SDS_P2;PMS_P1;PMS_P2;Temp;Humidity;BMP_temperature;BMP_pressure;BME280_temperature;BME280_humidity;BME280_pressure;Samples;Min_cycle;Max_cycle;Signal;HPM_P1;HPM_P2
2022/01/10 00:03:24;;;;;;;14.83;10.83;;;2.20;99.90;;;;;;8413721;28;20198;-71
2022/01/10 00:07:24;;;;;;;15.60;10.90;;;2.20;99.90;;;;;;8418782;28;20212;-71
2022/01/10 00:11:25;;;;;;;19.50;11.17;;;2.20;99.90;;;;;;8418977;28;20197;-71
2022/01/10 00:15:27;;;;;;;14.60;10.20;;;2.20;99.90;;;;;;8415036;28;20516;-71
2022/01/10 00:19:28;;;;;;;17.50;11.00;;;2.30;99.90;;;;;;8423214;28;20240;-71
2022/01/10 00:23:28;;;;;;;16.70;11.07;;;2.30;99.90;;;;;;8418805;28;20272;-70
2022/01/10 00:27:30;;;;;;;17.47;11.53;;;2.30;99.90;;;;;;8422570;28;20208;-71
2022/01/10 00:31:30;;;;;;;18.23;11.63;;;2.30;99.90;;;;;;8420694;28;20210;-72
2022/01/10 00:35:31;;;;;;;15.37;11.07;;;2.30;99.90;;;;;;8408748;28;20188;-70
2022/01/10 00:39:32;;;;;;;16.63;10.37;;;2.30;99.90;;;;;;8416907;28;20311;-71
2022/01/10 00:43:39;;;;;;;16.53;10.33;;;2.30;99.90;;;;;;8421425;28;20188;-72
2022/01/10 00:47:40;;;;;;;15.30;10.30;;;2.30;99.90;;;;;;8418026;28;20206;-71
2022/01/10 00:51:41;;;;;;;17.33;10.57;;;2.30;99.90;;;;;;8424575;28;20184;-70
2022/01/10 00:55:42;;;;;;;16.73;10.70;;;2.30;99.90;;;;;;8421986;28;20190;-73
2022/01/10 00:59:42;;;;;;;17.03;11.13;;;2.30;99.90;;;;;;8418318;28;20204;-71
2022/01/10 01:03:44;;;;;;;17.60;10.87;;;2.40;99.90;;;;;;8420754;28;20188;-71
2022/01/10 01:07:45;;;;;;;15.83;11.40;;;2.40;99.90;;;;;;8421020;28;20216;-71
2022/01/10 01:20:27;;;;;;;19.10;10.70;;;2.30;99.90;;;;;;8414404;28;20183;-69
2022/01/10 01:24:28;;;;;;;17.60;11.33;;;2.30;99.90;;;;;;8413296;28;20216;-71
2022/01/10 01:28:31;;;;;;;13.90;9.33;;;2.30;99.90;;;;;;8421918;28;20208;-71
2022/01/10 01:32:32;;;;;;;14.70;9.80;;;2.30;99.90;;;;;;8422044;28;20181;-71
2022/01/10 01:36:36;;;;;;;15.53;11.03;;;2.30;99.90;;;;;;8421770;28;20198;-71
2022/01/10 01:40:44;;;;;;;17.70;11.13;;;2.40;99.90;;;;;;8417185;28;20231;-72
2022/01/10 01:44:48;;;;;;;17.43;11.13;;;2.40;99.90;;;;;;8421170;28;20234;-71
2022/01/10 01:48:51;;;;;;;17.27;10.03;;;2.40;99.90;;;;;;8417987;28;20181;-70
2022/01/10 01:52:52;;;;;;;14.23;8.97;;;2.40;99.90;;;;;;8402183;28;20221;-71
2022/01/10 01:56:53;;;;;;;13.83;9.33;;;2.40;99.90;;;;;;8420468;28;20184;-69
2022/01/10 02:00:54;;;;;;;13.60;9.53;;;2.40;99.90;;;;;;8420428;28;20533;-71
2022/01/10 02:04:55;;;;;;;14.73;9.37;;;2.40;99.90;;;;;;8419333;28;20630;-72
2022/01/10 02:08:56;;;;;;;15.30;10.27;;;2.40;99.90;;;;;;8416587;28;20180;-70
2022/01/10 02:12:56;;;;;;;12.70;9.47;;;2.40;99.90;;;;;;8421688;28;20207;-71
2022/01/10 02:16:57;;;;;;;11.50;8.17;;;2.50;99.90;;;;;;8415575;28;20205;-72
2022/01/10 02:21:01;;;;;;;13.83;10.03;;;2.50;99.90;;;;;;8419725;28;20188;-72
2022/01/10 02:25:01;;;;;;;15.87;9.70;;;2.50;99.90;;;;;;8413073;28;20205;-70
2022/01/10 02:29:03;;;;;;;11.57;9.07;;;2.50;99.90;;;;;;8420258;28;20188;-71
2022/01/10 02:33:04;;;;;;;11.97;9.13;;;2.50;99.90;;;;;;8410768;28;20216;-70
2022/01/10 02:37:05;;;;;;;12.87;8.17;;;2.50;99.90;;;;;;8408890;28;20181;-72
2022/01/10 02:41:06;;;;;;;15.77;9.70;;;2.50;99.90;;;;;;8408368;28;20203;-71
2022/01/10 02:45:07;;;;;;;13.83;8.97;;;2.50;99.90;;;;;;8410031;28;20207;-72
2022/01/10 02:49:13;;;;;;;14.23;9.87;;;2.50;99.90;;;;;;8416469;28;20267;-70
2022/01/10 02:53:14;;;;;;;14.00;9.30;;;2.50;99.90;;;;;;8395166;28;20182;-68
2022/01/10 02:57:15;;;;;;;13.80;9.37;;;2.50;99.90;;;;;;8419822;28;20183;-71
2022/01/10 03:01:16;;;;;;;14.40;9.20;;;2.50;99.90;;;;;;8407270;28;20208;-70
2022/01/10 03:05:18;;;;;;;11.97;7.97;;;2.50;99.90;;;;;;8409675;28;20301;-71
2022/01/10 03:09:19;;;;;;;13.73;8.47;;;2.50;99.90;;;;;;8414851;28;20182;-70
2022/01/10 03:13:20;;;;;;;15.30;10.00;;;2.50;99.90;;;;;;8413776;28;20176;-72
2022/01/10 03:17:21;;;;;;;13.17;9.67;;;2.50;99.90;;;;;;8411123;28;20264;-71
2022/01/10 03:21:22;;;;;;;12.57;8.47;;;2.50;99.90;;;;;;8417159;28;20586;-70
2022/01/10 03:25:23;;;;;;;11.23;8.00;;;2.50;99.90;;;;;;8416896;28;20204;-71
2022/01/10 03:29:24;;;;;;;11.10;8.17;;;2.50;99.90;;;;;;8418581;28;20238;-71
2022/01/10 03:33:25;;;;;;;14.33;8.90;;;2.50;99.90;;;;;;8406003;28;20313;-69
2022/01/10 03:37:26;;;;;;;13.83;9.40;;;2.50;99.90;;;;;;8405239;28;20217;-71
2022/01/10 03:41:27;;;;;;;11.57;8.07;;;2.50;99.90;;;;;;8417904;28;20204;-69
2022/01/10 03:45:28;;;;;;;13.00;9.00;;;2.50;99.90;;;;;;8419062;28;20237;-70
2022/01/10 03:49:28;;;;;;;14.43;9.03;;;2.50;99.90;;;;;;8427917;28;20182;-70
2022/01/10 03:53:29;;;;;;;13.87;9.30;;;2.50;99.90;;;;;;8428830;28;20204;-71
2022/01/10 03:57:30;;;;;;;13.00;9.07;;;2.50;99.90;;;;;;8430039;28;20172;-70
2022/01/10 04:01:31;;;;;;;17.23;10.93;;;2.50;99.90;;;;;;8414506;28;20221;-71
2022/01/10 04:05:33;;;;;;;12.87;9.07;;;2.50;99.90;;;;;;8427198;28;20255;-70
2022/01/10 04:09:34;;;;;;;15.63;10.30;;;2.50;99.90;;;;;;8428027;28;20213;-70
2022/01/10 04:13:35;;;;;;;13.20;9.53;;;2.50;99.90;;;;;;8429103;28;20178;-68
2022/01/10 04:17:39;;;;;;;13.40;8.80;;;2.40;99.90;;;;;;8427132;28;20223;-72
2022/01/10 04:21:40;;;;;;;17.07;10.37;;;2.40;99.90;;;;;;8426937;28;20181;-70
2022/01/10 04:25:42;;;;;;;14.67;10.47;;;2.40;99.90;;;;;;8428713;28;20239;-71
2022/01/10 04:29:42;;;;;;;17.70;12.83;;;2.40;99.90;;;;;;8423171;28;20182;-71
2022/01/10 04:33:43;;;;;;;26.87;17.53;;;2.40;99.90;;;;;;8414143;28;20181;-71
2022/01/10 04:37:44;;;;;;;27.13;16.97;;;2.40;99.90;;;;;;8420606;28;20176;-68
2022/01/10 04:41:45;;;;;;;22.77;15.17;;;2.40;99.90;;;;;;8423154;28;20366;-70
2022/01/10 04:45:46;;;;;;;24.67;17.10;;;2.40;99.90;;;;;;8425801;28;20203;-71
2022/01/10 04:50:07;;;;;;;47.00;25.67;;;2.40;99.90;;;;;;8427108;28;20176;-71
2022/01/10 04:54:08;;;;;;;43.77;24.60;;;2.40;99.90;;;;;;8420856;28;20188;-71
2022/01/10 04:58:09;;;;;;;49.83;27.17;;;2.40;99.90;;;;;;8421064;28;20187;-72
2022/01/10 05:02:10;;;;;;;46.47;25.63;;;2.40;99.90;;;;;;8423426;28;20176;-73
2022/01/10 05:06:11;;;;;;;38.83;21.87;;;2.40;99.90;;;;;;8423692;28;20204;-71
2022/01/10 05:10:12;;;;;;;41.10;25.63;;;2.40;99.90;;;;;;8417487;28;20210;-72
2022/01/10 05:14:13;;;;;;;25.20;14.93;;;2.40;99.90;;;;;;8422061;28;20184;-70
2022/01/10 05:18:14;;;;;;;21.50;14.80;;;2.40;99.90;;;;;;8422047;28;20218;-71
2022/01/10 05:22:15;;;;;;;25.80;15.97;;;2.40;99.90;;;;;;8413612;28;20182;-69
2022/01/10 05:26:16;;;;;;;25.90;17.40;;;2.40;99.90;;;;;;8424670;28;20196;-71
2022/01/10 05:30:17;;;;;;;32.27;18.97;;;2.40;99.90;;;;;;8422165;28;20280;-72
2022/01/10 05:34:18;;;;;;;29.97;17.67;;;2.30;99.90;;;;;;8420865;28;20177;-72
2022/01/10 05:38:19;;;;;;;21.90;13.90;;;2.30;99.90;;;;;;8422413;28;20179;-71
2022/01/10 05:42:20;;;;;;;20.67;13.00;;;2.30;99.90;;;;;;8416089;28;20177;-71
2022/01/10 05:46:21;;;;;;;17.30;11.07;;;2.30;99.90;;;;;;8421484;28;20212;-71
2022/01/10 05:50:33;;;;;;;18.27;9.90;;;2.20;99.90;;;;;;8414344;28;20181;-72
2022/01/10 05:54:34;;;;;;;18.37;9.80;;;2.20;99.90;;;;;;8419615;28;20188;-71
2022/01/10 05:58:34;;;;;;;17.07;9.10;;;2.10;99.90;;;;;;8420146;28;20180;-71
2022/01/10 06:02:35;;;;;;;21.20;11.43;;;2.10;99.90;;;;;;8421704;28;20537;-69
2022/01/10 06:06:36;;;;;;;14.03;8.00;;;2.10;99.90;;;;;;8421288;28;20250;-69
2022/01/10 06:10:37;;;;;;;18.33;9.47;;;2.00;99.90;;;;;;8420163;28;20180;-72
2022/01/10 06:14:38;;;;;;;23.83;11.40;;;2.00;99.90;;;;;;8420150;28;20192;-72
2022/01/10 06:18:39;;;;;;;15.53;8.37;;;2.00;99.90;;;;;;8416263;28;20199;-71
2022/01/10 06:22:40;;;;;;;16.33;7.90;;;2.10;99.90;;;;;;8421303;28;20176;-70
2022/01/10 06:26:41;;;;;;;14.57;8.03;;;2.10;99.90;;;;;;8418267;28;20257;-71
2022/01/10 06:30:42;;;;;;;18.67;9.47;;;2.10;99.90;;;;;;8419276;28;20181;-70
2022/01/10 06:34:42;;;;;;;15.37;8.30;;;2.10;99.90;;;;;;8411813;28;20181;-70
2022/01/10 06:38:44;;;;;;;16.40;9.10;;;2.10;99.90;;;;;;8412129;28;20202;-71
2022/01/10 06:42:45;;;;;;;22.80;12.20;;;2.20;99.90;;;;;;8412865;28;20276;-73
2022/01/10 06:46:45;;;;;;;21.73;11.73;;;2.20;99.90;;;;;;8413185;28;20204;-70
2022/01/10 06:50:48;;;;;;;22.47;10.90;;;2.20;99.90;;;;;;8414633;28;20184;-72
2022/01/10 06:54:49;;;;;;;23.70;11.67;;;2.20;99.90;;;;;;8417731;28;20203;-70
2022/01/10 06:58:49;;;;;;;22.27;10.37;;;2.20;99.90;;;;;;8413707;28;20181;-69
2022/01/10 07:02:50;;;;;;;23.47;11.67;;;2.20;99.90;;;;;;8404890;28;20192;-71
2022/01/10 07:06:52;;;;;;;28.53;12.03;;;2.10;99.90;;;;;;8414031;28;20622;-71
2022/01/10 07:10:52;;;;;;;27.67;14.13;;;2.10;99.90;;;;;;8417478;28;20585;-70
2022/01/10 07:14:53;;;;;;;30.77;15.47;;;2.10;99.90;;;;;;8418778;28;20219;-68
2022/01/10 07:18:54;;;;;;;24.43;14.40;;;2.20;99.90;;;;;;8417940;28;20286;-68
2022/01/10 07:22:55;;;;;;;20.60;12.77;;;2.30;99.90;;;;;;8417462;28;20211;-68
2022/01/10 07:26:56;;;;;;;24.87;12.30;;;2.40;99.90;;;;;;8412203;28;20192;-68
2022/01/10 07:30:57;;;;;;;24.83;12.10;;;2.40;99.90;;;;;;8417388;28;20187;-68
2022/01/10 07:34:58;;;;;;;30.57;14.70;;;2.40;99.90;;;;;;8409396;28;20196;-68
2022/01/10 07:38:59;;;;;;;26.30;13.00;;;2.40;99.90;;;;;;8410538;28;20192;-68
2022/01/10 07:43:00;;;;;;;25.10;13.13;;;2.40;99.90;;;;;;8413739;28;20186;-68
2022/01/10 07:47:01;;;;;;;25.27;12.90;;;2.40;99.90;;;;;;8418218;28;20621;-68
2022/01/10 07:51:03;;;;;;;35.20;14.97;;;2.40;99.90;;;;;;8417991;28;20181;-68
2022/01/10 07:55:05;;;;;;;45.33;20.67;;;2.40;99.90;;;;;;8418132;28;20256;-68
2022/01/10 07:59:05;;;;;;;50.57;23.53;;;2.40;99.90;;;;;;8411883;28;20184;-68
2022/01/10 08:03:06;;;;;;;56.17;25.63;;;2.40;99.90;;;;;;8409371;28;20263;-68
2022/01/10 08:07:07;;;;;;;54.73;24.20;;;2.40;99.90;;;;;;8416550;28;20246;-68
2022/01/10 08:11:08;;;;;;;46.63;22.20;;;2.50;99.90;;;;;;8412609;28;20558;-69
2022/01/10 08:15:09;;;;;;;40.33;19.17;;;2.50;99.90;;;;;;8410636;28;20200;-68
2022/01/10 08:19:10;;;;;;;49.67;20.23;;;2.50;99.90;;;;;;8416296;28;20200;-67
2022/01/10 08:23:12;;;;;;;55.30;21.63;;;2.50;99.90;;;;;;8411950;28;20180;-66
2022/01/10 08:27:14;;;;;;;56.97;24.87;;;2.50;99.90;;;;;;8416288;28;20211;-66
2022/01/10 08:31:15;;;;;;;59.87;23.87;;;2.50;99.90;;;;;;8416278;28;20186;-66
2022/01/10 08:35:18;;;;;;;52.37;21.87;;;2.60;99.90;;;;;;8419203;28;20187;-66
2022/01/10 08:39:19;;;;;;;61.27;25.43;;;2.60;99.90;;;;;;8425172;28;20225;-66
2022/01/10 08:43:20;;;;;;;54.40;24.53;;;2.60;99.90;;;;;;8424250;28;20182;-66
2022/01/10 08:47:21;;;;;;;64.97;30.17;;;2.60;99.90;;;;;;8423523;28;20568;-66
2022/01/10 08:51:24;;;;;;;69.53;31.20;;;2.60;99.90;;;;;;8418124;28;20185;-66
2022/01/10 08:55:24;;;;;;;61.83;27.03;;;2.60;99.90;;;;;;8418537;28;20179;-68
2022/01/10 08:59:28;;;;;;;76.30;34.70;;;2.70;99.90;;;;;;8421322;28;20221;-66
2022/01/10 09:03:29;;;;;;;72.83;30.53;;;2.60;99.90;;;;;;8419462;28;20194;-66
2022/01/10 09:07:30;;;;;;;76.47;34.00;;;2.70;99.90;;;;;;8417793;28;20210;-66
2022/01/10 09:11:31;;;;;;;76.23;32.43;;;2.70;99.90;;;;;;8423523;28;20183;-66
2022/01/10 09:15:32;;;;;;;61.23;28.40;;;2.80;99.90;;;;;;8423387;28;20245;-66
2022/01/10 09:19:33;;;;;;;57.50;26.97;;;2.80;99.90;;;;;;8415831;28;20217;-66
2022/01/10 09:23:34;;;;;;;55.00;25.50;;;2.80;99.90;;;;;;8421828;28;20187;-70
2022/01/10 09:27:35;;;;;;;115.30;51.33;;;2.80;99.90;;;;;;8422993;28;20261;-66
2022/01/10 09:31:36;;;;;;;119.00;60.47;;;2.90;99.90;;;;;;8421155;28;20168;-67
2022/01/10 09:35:37;;;;;;;90.47;48.50;;;3.00;99.90;;;;;;8413073;28;20188;-67
2022/01/10 09:39:38;;;;;;;55.83;24.07;;;3.10;99.90;;;;;;8416809;28;20196;-67
2022/01/10 09:43:40;;;;;;;49.80;23.10;;;3.00;99.90;;;;;;8422509;28;20191;-67
2022/01/10 09:47:47;;;;;;;52.37;22.97;;;3.00;99.90;;;;;;8410804;28;20207;-66
2022/01/10 09:51:48;;;;;;;49.30;22.73;;;2.90;99.90;;;;;;8417397;28;20178;-66
2022/01/10 09:55:49;;;;;;;54.67;28.60;;;3.00;99.90;;;;;;8418044;28;20231;-66
2022/01/10 09:59:50;;;;;;;49.93;28.43;;;3.00;99.90;;;;;;8422409;28;20183;-67
2022/01/10 10:03:52;;;;;;;69.40;36.00;;;3.10;99.90;;;;;;8420140;28;20183;-66
2022/01/10 10:07:53;;;;;;;60.67;28.43;;;3.20;99.90;;;;;;8422691;28;20208;-66
2022/01/10 10:11:54;;;;;;;53.40;31.33;;;3.30;99.90;;;;;;8409635;28;20206;-66
2022/01/10 10:15:55;;;;;;;57.67;30.93;;;3.50;99.90;;;;;;8419966;28;20487;-67
2022/01/10 10:19:56;;;;;;;57.30;31.80;;;3.60;99.90;;;;;;8415846;28;20221;-67
2022/01/10 10:23:57;;;;;;;80.43;38.37;;;3.80;99.90;;;;;;8421769;28;20196;-67
2022/01/10 10:27:58;;;;;;;50.90;28.73;;;3.90;99.90;;;;;;8421280;28;20227;-66
2022/01/10 10:32:02;;;;;;;65.87;36.27;;;3.90;99.90;;;;;;8419657;28;20181;-67
2022/01/10 10:36:08;;;;;;;56.83;31.07;;;3.90;99.90;;;;;;8420193;28;20180;-67
2022/01/10 10:40:14;;;;;;;47.43;26.27;;;3.90;99.90;;;;;;8417428;28;20202;-67
2022/01/10 10:44:20;;;;;;;55.83;31.20;;;3.90;99.90;;;;;;8409469;28;20272;-66
2022/01/10 10:48:21;;;;;;;60.57;32.23;;;3.90;99.90;;;;;;8408415;28;20209;-66
2022/01/10 10:52:21;;;;;;;49.07;27.70;;;4.00;99.90;;;;;;8419176;28;20173;-67
2022/01/10 10:56:22;;;;;;;47.77;27.03;;;4.00;99.90;;;;;;8411821;28;20216;-66
2022/01/10 11:00:23;;;;;;;45.70;26.70;;;4.10;99.90;;;;;;8411499;28;20188;-66
2022/01/10 11:04:24;;;;;;;46.53;28.50;;;4.00;99.90;;;;;;8407255;28;20177;-66
2022/01/10 11:08:31;;;;;;;48.77;28.23;;;3.90;99.90;;;;;;8418343;28;20212;-67
2022/01/10 11:12:35;;;;;;;58.77;32.03;;;4.00;99.90;;;;;;8419120;28;20188;-67
2022/01/10 11:16:38;;;;;;;61.30;32.23;;;4.00;99.90;;;;;;8419964;28;20201;-66
2022/01/10 11:20:45;;;;;;;52.17;28.93;;;4.00;99.90;;;;;;8412315;28;20187;-67
2022/01/10 11:24:48;;;;;;;74.37;39.07;;;3.90;99.90;;;;;;8419174;28;20251;-66
2022/01/10 11:28:56;;;;;;;54.50;31.67;;;3.90;99.90;;;;;;8419420;28;20256;-66
2022/01/10 11:33:10;;;;;;;54.23;31.20;;;4.00;99.90;;;;;;8405129;28;20181;-67
2022/01/10 11:37:11;;;;;;;54.27;31.00;;;4.00;99.90;;;;;;8416579;28;20191;-66
2022/01/10 11:41:13;;;;;;;51.63;29.60;;;3.90;99.90;;;;;;8416592;28;20249;-66
2022/01/10 11:45:15;;;;;;;55.53;32.17;;;3.50;99.90;;;;;;8414521;28;20219;-67
2022/01/10 11:49:21;;;;;;;53.13;30.47;;;3.30;99.90;;;;;;8416819;28;20187;-67
2022/01/10 11:53:25;;;;;;;61.33;32.93;;;3.30;99.90;;;;;;8416589;28;20194;-67
2022/01/10 11:57:26;;;;;;;55.00;31.03;;;3.30;99.90;;;;;;8417926;28;20184;-66
2022/01/10 12:01:34;;;;;;;56.27;31.53;;;3.20;99.90;;;;;;8418329;28;20271;-67
2022/01/10 12:05:35;;;;;;;62.07;37.70;;;3.10;99.90;;;;;;8413169;28;20210;-66
2022/01/10 12:09:36;;;;;;;120.43;57.77;;;3.10;99.90;;;;;;8419004;28;20568;-67
2022/01/10 12:13:37;;;;;;;170.73;82.87;;;3.10;99.90;;;;;;8422262;28;20187;-66
2022/01/10 12:17:38;;;;;;;111.87;57.47;;;3.20;99.90;;;;;;8419427;28;20201;-67
2022/01/10 12:21:39;;;;;;;125.43;67.70;;;3.20;99.90;;;;;;8420298;28;20199;-66
2022/01/10 12:25:41;;;;;;;125.33;57.23;;;3.20;99.90;;;;;;8425275;28;20201;-69
2022/01/10 12:29:43;;;;;;;103.33;49.43;;;3.20;99.90;;;;;;8423153;28;20180;-69
2022/01/10 12:33:43;;;;;;;114.30;55.03;;;3.20;99.90;;;;;;8408947;28;20169;-69
2022/01/10 12:37:44;;;;;;;124.20;55.07;;;3.20;99.90;;;;;;8422652;28;20248;-67
2022/01/10 12:41:45;;;;;;;116.83;53.67;;;3.20;99.90;;;;;;8420486;28;20231;-68
2022/01/10 12:45:47;;;;;;;66.40;38.30;;;3.20;99.90;;;;;;8419180;28;20271;-68
2022/01/10 12:49:48;;;;;;;68.37;40.63;;;3.10;99.90;;;;;;8423611;28;20183;-66
2022/01/10 12:53:51;;;;;;;84.40;43.50;;;3.00;99.90;;;;;;8418684;28;20188;-67
2022/01/10 12:57:52;;;;;;;85.60;46.70;;;3.00;99.90;;;;;;8413807;28;20237;-67
2022/01/10 13:01:55;;;;;;;71.73;41.43;;;2.90;99.90;;;;;;8422598;28;20174;-66
2022/01/10 13:05:58;;;;;;;84.67;44.07;;;2.90;99.90;;;;;;8420702;28;20197;-67
2022/01/10 13:10:06;;;;;;;86.77;42.27;;;2.90;99.90;;;;;;8413151;28;20175;-67
2022/01/10 13:14:09;;;;;;;74.07;40.90;;;3.00;99.90;;;;;;8421088;28;20619;-68
2022/01/10 13:18:15;;;;;;;73.67;39.77;;;2.90;99.90;;;;;;8418683;28;20203;-67
2022/01/10 13:22:16;;;;;;;64.07;37.87;;;2.90;99.90;;;;;;8411068;28;20186;-66
2022/01/10 13:26:24;;;;;;;95.20;52.13;;;2.90;99.90;;;;;;8422069;28;20199;-67
2022/01/10 13:30:26;;;;;;;88.37;46.00;;;2.80;99.90;;;;;;8416840;28;20177;-67
2022/01/10 13:34:27;;;;;;;77.37;48.00;;;2.80;99.90;;;;;;8420067;28;20176;-67
2022/01/10 13:38:28;;;;;;;71.13;42.30;;;2.80;99.90;;;;;;8420665;28;20390;-70
2022/01/10 13:42:29;;;;;;;76.87;41.90;;;2.70;99.90;;;;;;8422047;28;20329;-68
2022/01/10 13:46:30;;;;;;;71.30;39.70;;;2.70;99.90;;;;;;8419132;28;20262;-70
2022/01/10 13:50:32;;;;;;;94.40;50.70;;;2.60;99.90;;;;;;8421351;28;20202;-69
2022/01/10 13:54:33;;;;;;;76.43;44.67;;;2.50;99.90;;;;;;8422544;28;20202;-68
2022/01/10 13:58:35;;;;;;;77.07;42.77;;;2.50;99.90;;;;;;8420751;28;20174;-68
2022/01/10 14:02:41;;;;;;;77.07;40.37;;;2.40;99.90;;;;;;8420612;28;20177;-68
2022/01/10 14:06:42;;;;;;;79.67;42.27;;;2.20;99.90;;;;;;8422290;28;20216;-68
2022/01/10 14:10:43;;;;;;;91.40;46.77;;;2.10;99.90;;;;;;8418353;28;20288;-68
2022/01/10 14:14:44;;;;;;;97.43;51.67;;;2.10;99.90;;;;;;8415745;28;20184;-68
2022/01/10 14:18:45;;;;;;;76.80;44.80;;;2.00;99.90;;;;;;8418717;28;20248;-67
2022/01/10 14:22:47;;;;;;;62.67;38.97;;;1.80;99.90;;;;;;8412246;28;20241;-67
2022/01/10 14:26:49;;;;;;;79.13;42.80;;;1.60;99.90;;;;;;8420641;28;20299;-68
2022/01/10 14:30:51;;;;;;;71.27;41.80;;;1.40;99.90;;;;;;8415163;28;20180;-67
2022/01/10 14:34:52;;;;;;;104.97;52.17;;;1.30;99.90;;;;;;8397278;28;20180;-67
2022/01/10 14:38:53;;;;;;;126.00;62.30;;;1.10;99.90;;;;;;8416971;28;20261;-67
2022/01/10 14:42:54;;;;;;;114.93;57.77;;;1.00;99.90;;;;;;8408506;28;20253;-67
2022/01/10 14:46:55;;;;;;;101.27;51.50;;;0.80;99.90;;;;;;8420662;28;20250;-67
2022/01/10 14:50:57;;;;;;;100.83;53.20;;;0.70;99.90;;;;;;8418810;28;20188;-67
2022/01/10 14:54:58;;;;;;;117.67;58.40;;;0.60;99.90;;;;;;8420131;28;20183;-67
2022/01/10 14:59:05;;;;;;;112.37;54.40;;;0.50;99.90;;;;;;8413774;28;20173;-67
2022/01/10 15:03:06;;;;;;;210.23;92.07;;;0.30;99.90;;;;;;8418950;28;20215;-67
2022/01/10 15:07:07;;;;;;;149.20;71.07;;;0.20;99.90;;;;;;8421097;28;20205;-67
2022/01/10 15:11:10;;;;;;;117.67;61.80;;;0.10;99.90;;;;;;8417535;28;20176;-67
2022/01/10 15:15:11;;;;;;;108.03;56.13;;;0.00;99.90;;;;;;8415079;28;20201;-69
2022/01/10 15:19:12;;;;;;;108.20;56.63;;;-0.10;99.90;;;;;;8412088;28;20184;-67
2022/01/10 15:23:13;;;;;;;134.43;66.80;;;-0.20;99.90;;;;;;8420166;28;20176;-67
2022/01/10 15:27:14;;;;;;;158.63;76.97;;;-0.30;99.90;;;;;;8420626;28;20204;-68
2022/01/10 15:31:15;;;;;;;228.10;98.27;;;-0.30;99.90;;;;;;8420505;28;20236;-67
2022/01/10 15:35:16;;;;;;;200.83;92.97;;;-0.50;99.90;;;;;;8408896;28;20179;-67
2022/01/10 15:39:17;;;;;;;179.13;86.63;;;-0.60;99.90;;;;;;8413752;28;20211;-68
2022/01/10 15:43:18;;;;;;;156.73;73.37;;;-0.70;99.90;;;;;;8411267;28;20244;-67
2022/01/10 15:47:20;;;;;;;166.87;77.50;;;-0.80;99.90;;;;;;8419684;28;20207;-68
2022/01/10 15:51:21;;;;;;;216.20;103.13;;;-0.90;99.90;;;;;;8418816;28;20267;-67
2022/01/10 15:55:22;;;;;;;200.83;92.00;;;-0.90;99.90;;;;;;8418521;28;20180;-68
2022/01/10 15:59:26;;;;;;;160.77;79.47;;;-1.00;99.90;;;;;;8418441;28;20199;-67
2022/01/10 16:03:27;;;;;;;253.73;116.10;;;-1.10;99.90;;;;;;8417990;28;20182;-67
2022/01/10 16:07:28;;;;;;;299.90;135.90;;;-1.20;99.90;;;;;;8402066;28;20210;-68
2022/01/10 16:11:29;;;;;;;199.93;90.23;;;-1.20;99.90;;;;;;8417068;28;20188;-68
2022/01/10 16:15:30;;;;;;;211.27;95.80;;;-1.30;99.90;;;;;;8417459;28;20204;-70
2022/01/10 16:19:30;;;;;;;176.97;80.47;;;-1.40;99.90;;;;;;8417800;28;20201;-67
2022/01/10 16:23:31;;;;;;;220.03;102.57;;;-1.50;99.90;;;;;;8418153;28;20182;-67
2022/01/10 16:27:32;;;;;;;204.57;93.20;;;-1.60;99.90;;;;;;8418893;28;20303;-67
2022/01/10 16:31:33;;;;;;;179.33;86.13;;;-1.60;99.90;;;;;;8419153;28;20230;-68
2022/01/10 16:35:34;;;;;;;178.53;83.47;;;-1.70;99.90;;;;;;8414755;28;20190;-68
2022/01/10 16:39:36;;;;;;;157.57;78.47;;;-1.80;99.90;;;;;;8416241;28;20202;-68
2022/01/10 16:43:36;;;;;;;162.77;78.07;;;-1.90;99.90;;;;;;8417160;28;20199;-67
2022/01/10 16:47:38;;;;;;;162.30;77.63;;;-2.00;99.90;;;;;;8413173;28;20218;-68
2022/01/10 16:51:39;;;;;;;229.60;102.40;;;-2.10;99.90;;;;;;8411345;28;20185;-68
2022/01/10 16:55:40;;;;;;;210.73;94.23;;;-2.10;99.90;;;;;;8410797;28;20210;-68
2022/01/10 16:59:41;;;;;;;196.40;91.10;;;-2.10;99.90;;;;;;8418916;28;20181;-68
2022/01/10 17:03:41;;;;;;;184.73;85.70;;;-2.10;99.90;;;;;;8424112;28;20177;-68
2022/01/10 17:07:42;;;;;;;234.20;105.97;;;-2.10;99.90;;;;;;8424225;28;20221;-68
2022/01/10 17:11:43;;;;;;;298.10;136.90;;;-2.20;99.90;;;;;;8423841;28;20187;-68
2022/01/10 17:15:44;;;;;;;211.33;98.70;;;-2.20;99.90;;;;;;8422140;28;20197;-68
2022/01/10 17:19:46;;;;;;;172.77;82.10;;;-2.20;99.90;;;;;;8420879;28;20178;-69
2022/01/10 17:23:47;;;;;;;193.53;79.70;;;-2.20;99.90;;;;;;8417397;28;20211;-68
2022/01/10 17:27:50;;;;;;;167.00;80.93;;;-2.30;99.90;;;;;;8416800;28;20201;-68
2022/01/10 17:31:51;;;;;;;195.57;89.10;;;-2.40;99.90;;;;;;8423396;28;20170;-69
2022/01/10 17:35:52;;;;;;;167.03;77.23;;;-2.50;99.90;;;;;;8422680;28;20196;-69
2022/01/10 17:39:57;;;;;;;154.87;74.00;;;-2.50;99.90;;;;;;8421280;28;20253;-68
2022/01/10 17:44:00;;;;;;;166.13;75.37;;;-2.60;99.90;;;;;;8422200;28;20188;-69
2022/01/10 17:48:01;;;;;;;151.67;72.80;;;-2.60;99.90;;;;;;8422508;28;20216;-68
2022/01/10 17:52:12;;;;;;;166.13;79.43;;;-2.70;99.90;;;;;;8422399;28;20179;-68
2022/01/10 17:56:13;;;;;;;191.47;89.03;;;-2.70;99.90;;;;;;8422207;28;20263;-68
2022/01/10 18:00:18;;;;;;;205.13;94.60;;;-2.80;99.90;;;;;;8422736;28;20188;-68
2022/01/10 18:04:19;;;;;;;191.77;88.83;;;-2.80;99.90;;;;;;8411644;28;20182;-69
2022/01/10 18:08:21;;;;;;;188.23;87.43;;;-2.70;99.90;;;;;;8416254;28;20205;-69
2022/01/10 18:12:21;;;;;;;179.20;83.57;;;-2.50;99.90;;;;;;8420252;28;20177;-68
2022/01/10 18:16:25;;;;;;;178.83;81.63;;;-2.40;99.90;;;;;;8414565;28;20235;-69
2022/01/10 18:20:29;;;;;;;178.10;80.33;;;-2.20;99.90;;;;;;8412900;28;20322;-69
2022/01/10 18:24:30;;;;;;;154.67;72.93;;;-2.00;99.90;;;;;;8418952;28;20299;-68
2022/01/10 18:28:32;;;;;;;143.77;64.30;;;-1.90;99.90;;;;;;8417783;28;20204;-68
2022/01/10 18:32:33;;;;;;;135.73;65.87;;;-1.80;99.90;;;;;;8419284;28;20481;-69
2022/01/10 18:36:35;;;;;;;127.83;64.63;;;-1.80;99.90;;;;;;8408981;28;20205;-69
2022/01/10 18:40:36;;;;;;;133.30;63.10;;;-1.70;99.90;;;;;;8419463;28;20202;-69
2022/01/10 18:44:39;;;;;;;124.97;58.43;;;-1.70;99.90;;;;;;8416338;28;20181;-69
2022/01/10 18:48:43;;;;;;;132.50;60.73;;;-1.60;99.90;;;;;;8419870;28;20222;-69
2022/01/10 18:52:45;;;;;;;162.03;78.23;;;-1.70;99.90;;;;;;8417735;28;20175;-69
2022/01/10 18:56:45;;;;;;;141.43;64.67;;;-1.70;99.90;;;;;;8420809;28;20181;-69
2022/01/10 19:00:46;;;;;;;135.80;60.50;;;-1.60;99.90;;;;;;8419317;28;20192;-69
2022/01/10 19:04:48;;;;;;;121.17;55.93;;;-1.60;99.90;;;;;;8419334;28;20181;-68
2022/01/10 19:08:49;;;;;;;121.90;54.53;;;-1.60;99.90;;;;;;8421234;28;20227;-68
2022/01/10 19:12:50;;;;;;;118.03;53.23;;;-1.70;99.90;;;;;;8419516;28;20235;-68
2022/01/10 19:16:51;;;;;;;116.97;51.93;;;-1.70;99.90;;;;;;8421554;28;20280;-69
2022/01/10 19:20:52;;;;;;;106.60;50.40;;;-1.60;99.90;;;;;;8414198;28;20181;-68
2022/01/10 19:24:55;;;;;;;130.40;55.77;;;-1.70;99.90;;;;;;8415080;28;20264;-69
2022/01/10 19:28:56;;;;;;;120.20;51.73;;;-1.70;99.90;;;;;;8420295;28;20177;-69
2022/01/10 19:32:57;;;;;;;114.57;49.80;;;-1.70;99.90;;;;;;8413928;28;20186;-68
2022/01/10 19:36:58;;;;;;;112.33;48.07;;;-1.70;99.90;;;;;;8411128;28;20208;-69
2022/01/10 19:40:59;;;;;;;118.13;50.67;;;-1.70;99.90;;;;;;8415361;28;20201;-68
2022/01/10 19:45:02;;;;;;;131.70;50.77;;;-1.80;99.90;;;;;;8392409;28;20297;-68
2022/01/10 19:49:03;;;;;;;113.60;49.87;;;-1.80;99.90;;;;;;8418293;28;20181;-68
2022/01/10 19:53:05;;;;;;;107.27;45.27;;;-1.80;99.90;;;;;;8418241;28;20177;-68
2022/01/10 19:57:06;;;;;;;161.73;60.00;;;-1.80;99.90;;;;;;8419408;28;20186;-69
2022/01/10 20:01:07;;;;;;;210.90;69.33;;;-1.80;99.90;;;;;;8412976;28;20200;-70
2022/01/10 20:05:09;;;;;;;137.97;52.27;;;-1.80;99.90;;;;;;8419043;28;20232;-68
2022/01/10 20:09:10;;;;;;;215.27;72.37;;;-1.80;99.90;;;;;;8419023;28;20328;-69
2022/01/10 20:13:11;;;;;;;156.63;55.20;;;-1.80;99.90;;;;;;8418553;28;20175;-68
2022/01/10 20:17:12;;;;;;;117.23;46.00;;;-1.80;99.90;;;;;;8420475;28;20207;-68
2022/01/10 20:21:13;;;;;;;154.33;54.20;;;-1.80;99.90;;;;;;8413759;28;20269;-68
2022/01/10 20:25:14;;;;;;;182.50;62.63;;;-1.70;99.90;;;;;;8386590;28;20257;-68
2022/01/10 20:29:17;;;;;;;111.80;43.60;;;-1.70;99.90;;;;;;8401119;28;20200;-69
2022/01/10 20:33:18;;;;;;;133.97;52.50;;;-1.70;99.90;;;;;;8419689;28;20169;-68
2022/01/10 20:37:19;;;;;;;122.27;46.83;;;-1.90;99.90;;;;;;8423771;28;20177;-71
2022/01/10 20:41:20;;;;;;;79.57;32.67;;;-2.00;99.90;;;;;;8415700;28;20232;-67
2022/01/10 20:45:22;;;;;;;83.63;34.80;;;-2.10;99.90;;;;;;8422961;28;20196;-68